createdAt,value
2022-12-19T00:03:01.990Z,-4.70
2022-12-19T00:06:07.697Z,-4.69
2022-12-19T00:09:15.174Z,-4.68
2022-12-19T00:12:24.347Z,-4.66
2022-12-19T00:15:30.905Z,-4.64
2022-12-19T00:18:34.391Z,-4.64
2022-12-19T00:21:39.908Z,-4.62
2022-12-19T00:24:48.893Z,-4.56
2022-12-19T00:27:52.247Z,-4.55
2022-12-19T00:30:56.301Z,-4.51
2022-12-19T00:34:01.541Z,-4.52
2022-12-19T00:37:06.993Z,-4.52
2022-12-19T00:40:12.720Z,-4.52
2022-12-19T00:43:16.484Z,-4.53
2022-12-19T00:46:20.058Z,-4.54
2022-12-19T00:49:23.727Z,-4.50
2022-12-19T00:52:28.996Z,-4.49
2022-12-19T00:55:34.637Z,-4.44
2022-12-19T00:58:46.618Z,-4.43
2022-12-19T01:01:53.668Z,-4.45
2022-12-19T01:05:10.933Z,-4.43
2022-12-19T01:08:41.341Z,-4.42
2022-12-19T01:12:03.583Z,-4.37
2022-12-19T01:15:12.749Z,-4.37
2022-12-19T01:18:38.428Z,-4.35
2022-12-19T01:21:42.517Z,-4.36
2022-12-19T01:24:50.484Z,-4.36
2022-12-19T01:27:56.053Z,-4.37
2022-12-19T01:31:03.778Z,-4.37
2022-12-19T01:34:10.541Z,-4.38
2022-12-19T01:37:20.416Z,-4.36
2022-12-19T01:40:25.996Z,-4.34
2022-12-19T01:43:34.130Z,-4.34
2022-12-19T01:46:42.811Z,-4.33
2022-12-19T01:49:48.114Z,-4.31
2022-12-19T01:53:03.796Z,-4.32
2022-12-19T01:56:23.752Z,-4.31
2022-12-19T01:59:33.643Z,-4.28
2022-12-19T02:02:46.809Z,-4.22
2022-12-19T02:05:54.485Z,-4.18
2022-12-19T02:08:58.818Z,-4.15
2022-12-19T02:12:06.204Z,-4.07
2022-12-19T02:15:18.362Z,-4.09
2022-12-19T02:18:36.273Z,-4.04
2022-12-19T02:21:55.844Z,-4.00
2022-12-19T02:25:56.708Z,-3.99
2022-12-19T02:29:21.192Z,-4.02
2022-12-19T02:32:36.398Z,-3.99
2022-12-19T02:35:55.857Z,-4.01
2022-12-19T02:39:09.383Z,-4.00
2022-12-19T02:42:22.145Z,-4.02
2022-12-19T02:45:40.633Z,-4.00
2022-12-19T02:48:48.017Z,-4.01
2022-12-19T02:51:51.645Z,-3.98
2022-12-19T02:55:01.727Z,-4.01
2022-12-19T02:58:34.179Z,-4.00
2022-12-19T03:01:47.013Z,-4.01
2022-12-19T03:04:59.510Z,-4.02
2022-12-19T03:08:09.440Z,-4.03
2022-12-19T03:21:50.581Z,-4.04
2022-12-19T03:24:53.722Z,-4.06
2022-12-19T03:28:03.124Z,-4.05
2022-12-19T03:31:08.230Z,-4.06
2022-12-19T03:34:20.695Z,-4.04
2022-12-19T03:37:30.003Z,-4.07
2022-12-19T03:40:36.898Z,-4.06
2022-12-19T03:43:55.775Z,-4.04
2022-12-19T03:47:04.877Z,-4.02
2022-12-19T03:50:09.912Z,-4.01
2022-12-19T03:53:36.242Z,-4.02
2022-12-19T03:56:52.225Z,-4.00
2022-12-19T04:00:04.492Z,-3.99
2022-12-19T04:03:18.274Z,-3.99
2022-12-19T04:06:23.399Z,-3.95
2022-12-19T04:09:34.045Z,-3.95
2022-12-19T04:12:52.797Z,-3.94
2022-12-19T04:16:16.033Z,-3.95
2022-12-19T04:19:27.857Z,-3.96
2022-12-19T04:22:54.318Z,-3.97
2022-12-19T04:26:07.284Z,-3.97
2022-12-19T04:29:17.124Z,-3.97
2022-12-19T04:32:35.285Z,-3.96
2022-12-19T04:35:39.029Z,-3.98
2022-12-19T04:38:42.171Z,-3.98
2022-12-19T04:41:46.948Z,-3.98
2022-12-19T04:44:49.982Z,-3.96
2022-12-19T04:47:53.047Z,-3.92
2022-12-19T04:50:56.960Z,-3.91
2022-12-19T04:54:00.394Z,-3.88
2022-12-19T04:57:06.760Z,-3.88
2022-12-19T05:00:11.687Z,-3.83
2022-12-19T05:03:14.779Z,-3.83
2022-12-19T05:06:18.971Z,-3.84
2022-12-19T05:09:22.464Z,-3.84
2022-12-19T05:12:26.942Z,-3.83
2022-12-19T05:15:29.981Z,-3.83
2022-12-19T05:18:33.467Z,-3.83
2022-12-19T05:21:36.677Z,-3.84
2022-12-19T05:24:39.691Z,-3.85
2022-12-19T05:27:44.169Z,-3.87
2022-12-19T05:30:52.034Z,-3.84
2022-12-19T05:33:55.566Z,-3.83
2022-12-19T05:36:59.033Z,-3.79
2022-12-19T05:40:03.356Z,-3.74
2022-12-19T05:43:08.101Z,-3.74
2022-12-19T05:46:11.445Z,-3.70
2022-12-19T05:49:14.778Z,-3.69
2022-12-19T05:52:17.991Z,-3.68
2022-12-19T05:55:21.049Z,-3.67
2022-12-19T05:58:25.453Z,-3.67
2022-12-19T06:01:30.234Z,-3.66
2022-12-19T06:04:33.534Z,-3.64
2022-12-19T06:07:36.618Z,-3.64
2022-12-19T06:10:39.654Z,-3.63
2022-12-19T06:13:44.341Z,-3.62
2022-12-19T06:16:47.704Z,-3.61
2022-12-19T06:19:50.746Z,-3.61
2022-12-19T06:22:53.738Z,-3.58
2022-12-19T06:25:58.389Z,-3.55
2022-12-19T06:29:02.805Z,-3.54
2022-12-19T06:32:06.092Z,-3.52
2022-12-19T06:35:12.040Z,-3.50
2022-12-19T06:38:15.451Z,-3.47
2022-12-19T06:41:37.385Z,-3.45
2022-12-19T06:44:41.738Z,-3.43
2022-12-19T06:47:44.787Z,-3.39
2022-12-19T06:50:48.207Z,-3.37
2022-12-19T06:53:51.775Z,-3.36
2022-12-19T06:56:54.850Z,-3.33
2022-12-19T06:59:59.212Z,-3.31
2022-12-19T07:03:05.209Z,-3.28
2022-12-19T07:06:09.193Z,-3.23
2022-12-19T07:09:12.231Z,-3.19
2022-12-19T07:12:15.284Z,-3.13
2022-12-19T07:15:19.642Z,-3.10
2022-12-19T07:18:22.779Z,-3.07
2022-12-19T07:21:25.895Z,-3.04
2022-12-19T07:24:29.564Z,-3.01
2022-12-19T07:27:35.874Z,-2.97
2022-12-19T07:30:40.696Z,-2.94
2022-12-19T07:33:43.705Z,-2.91
2022-12-19T07:36:47.028Z,-2.86
2022-12-19T07:39:50.360Z,-2.82
2022-12-19T07:42:53.386Z,-2.78
2022-12-19T07:46:02.889Z,-2.74
2022-12-19T07:49:06.136Z,-2.70
2022-12-19T07:52:09.427Z,-2.65
2022-12-19T07:55:12.604Z,-2.63
2022-12-19T07:58:21.940Z,-2.60
2022-12-19T08:01:28.486Z,-2.57
2022-12-19T08:04:33.459Z,-2.51
2022-12-19T08:07:41.669Z,-2.46
2022-12-19T08:10:45.377Z,-2.42
2022-12-19T08:13:49.517Z,-2.40
2022-12-19T08:17:19.721Z,-2.36
2022-12-19T08:20:17.327Z,-2.29
2022-12-19T08:23:20.489Z,-2.29
2022-12-19T08:26:25.910Z,-2.25
2022-12-19T08:29:28.977Z,-2.20
2022-12-19T08:32:33.297Z,-2.14
2022-12-19T08:35:37.561Z,-2.07
2022-12-19T08:38:41.223Z,-2.02
2022-12-19T08:41:44.682Z,-1.95
2022-12-19T08:44:47.853Z,-1.89
2022-12-19T08:47:52.475Z,-1.84
2022-12-19T08:50:58.011Z,-1.80
2022-12-19T08:54:01.137Z,-1.75
2022-12-19T08:57:05.275Z,-1.69
2022-12-19T09:00:10.693Z,-1.67
2022-12-19T09:03:16.141Z,-1.63
2022-12-19T09:06:22.150Z,-1.56
2022-12-19T09:09:27.067Z,-1.53
2022-12-19T09:12:30.142Z,-1.49
2022-12-19T09:15:33.337Z,-1.47
2022-12-19T09:18:42.598Z,-1.41
2022-12-19T09:21:48.221Z,-1.37
2022-12-19T09:24:51.246Z,-1.32
2022-12-19T09:28:26.487Z,-1.26
2022-12-19T09:31:19.436Z,-1.18
2022-12-19T09:34:24.368Z,-1.14
2022-12-19T09:37:30.775Z,-1.08
2022-12-19T09:40:54.183Z,-0.99
2022-12-19T09:44:09.456Z,-0.93
2022-12-19T09:47:16.501Z,-0.89
2022-12-19T09:50:34.616Z,-0.82
2022-12-19T09:53:54.417Z,-0.77
2022-12-19T09:57:04.735Z,-0.70
2022-12-19T10:00:14.263Z,-0.65
2022-12-19T10:03:25.745Z,-0.58
2022-12-19T10:07:11.366Z,-0.50
2022-12-19T10:12:34.576Z,-0.40
2022-12-19T10:13:31.562Z,-0.31
2022-12-19T10:17:01.726Z,-0.24
2022-12-19T10:20:20.823Z,-0.18
2022-12-19T10:23:53.899Z,-0.12
2022-12-19T10:27:01.569Z,-0.06
2022-12-19T10:30:15.578Z,0.01
2022-12-19T10:33:25.882Z,0.06
2022-12-19T10:37:11.960Z,0.08
2022-12-19T10:40:13.034Z,0.16
2022-12-19T10:43:35.694Z,0.22
2022-12-19T10:46:43.557Z,0.25
2022-12-19T10:49:46.838Z,0.32
2022-12-19T10:52:56.764Z,0.42
2022-12-19T10:56:13.632Z,0.52
2022-12-19T10:59:20.688Z,0.62
2022-12-19T11:02:45.166Z,0.68
2022-12-19T11:05:58.375Z,0.68
2022-12-19T11:09:24.607Z,0.68
2022-12-19T11:17:39.833Z,0.73
2022-12-19T11:21:05.526Z,0.76
2022-12-19T11:29:17.391Z,0.78
2022-12-19T11:30:05.575Z,0.78
2022-12-19T11:30:59.587Z,0.76
2022-12-19T11:33:23.697Z,0.74
2022-12-19T11:36:36.795Z,0.76
2022-12-19T11:39:46.175Z,0.75
2022-12-19T11:43:18.167Z,0.75
2022-12-19T11:46:33.800Z,0.77
2022-12-19T11:49:43.074Z,0.76
2022-12-19T11:53:04.494Z,0.77
2022-12-19T11:56:16.424Z,0.78
2022-12-19T11:59:22.793Z,0.75
2022-12-19T12:02:51.900Z,0.78
2022-12-19T12:05:58.329Z,0.77
2022-12-19T12:12:30.871Z,0.73
2022-12-19T12:19:49.565Z,0.71
2022-12-19T12:28:25.602Z,0.75
2022-12-19T12:31:01.689Z,0.76
2022-12-19T12:31:16.107Z,0.76
2022-12-19T12:31:57.403Z,0.77
2022-12-19T12:35:08.605Z,0.78
2022-12-19T12:35:47.066Z,0.77
2022-12-19T12:41:46.932Z,0.80
2022-12-19T12:44:54.097Z,0.82
2022-12-19T12:47:57.130Z,0.84
2022-12-19T12:51:01.894Z,0.88
2022-12-19T12:54:13.208Z,0.92
2022-12-19T12:57:34.734Z,0.97
2022-12-19T13:00:39.979Z,1.05
2022-12-19T13:03:44.648Z,1.08
2022-12-19T13:07:17.330Z,1.13
2022-12-19T13:10:27.683Z,1.12
2022-12-19T13:13:53.086Z,1.16
2022-12-19T13:16:59.682Z,1.17
2022-12-19T13:20:48.440Z,1.22
2022-12-19T13:23:51.591Z,1.26
2022-12-19T13:26:54.582Z,1.30
2022-12-19T13:30:14.273Z,1.31
2022-12-19T13:33:17.355Z,1.31
2022-12-19T13:36:51.137Z,1.36
2022-12-19T13:40:32.783Z,1.35
2022-12-19T13:43:49.679Z,1.36
2022-12-19T13:46:56.164Z,1.35
2022-12-19T13:49:59.991Z,1.33
2022-12-19T13:53:10.699Z,1.32
2022-12-19T13:56:17.742Z,1.34
2022-12-19T13:59:23.007Z,1.35
2022-12-19T14:02:32.195Z,1.35
2022-12-19T14:06:16.904Z,1.37
2022-12-19T14:11:26.723Z,1.39
2022-12-19T14:13:53.820Z,1.41
2022-12-19T14:16:43.601Z,1.43
2022-12-19T14:19:50.467Z,1.45
2022-12-19T14:22:58.202Z,1.46
2022-12-19T14:28:26.197Z,1.45
2022-12-19T14:30:26.710Z,1.49
2022-12-19T14:33:44.776Z,1.54
2022-12-19T14:36:26.125Z,1.56
2022-12-19T14:39:33.728Z,1.58
2022-12-19T14:43:59.340Z,1.63
2022-12-19T14:52:35.818Z,1.71
2022-12-19T14:54:13.004Z,1.72
2022-12-19T14:54:34.716Z,1.75
2022-12-19T14:56:58.853Z,1.80
2022-12-19T15:01:08.435Z,1.87
2022-12-19T15:04:53.369Z,1.90
2022-12-19T15:07:25.612Z,1.91
2022-12-19T15:11:04.533Z,2.00
2022-12-19T15:14:52.683Z,2.05
2022-12-19T15:17:25.997Z,2.07
2022-12-19T15:20:29.046Z,2.12
2022-12-19T15:23:32.735Z,2.11
2022-12-19T15:26:47.901Z,2.16
2022-12-19T15:29:51.076Z,2.22
2022-12-19T15:32:55.419Z,2.22
2022-12-19T15:35:58.697Z,2.27
2022-12-19T15:39:01.873Z,2.30
2022-12-19T15:42:06.239Z,2.34
2022-12-19T15:45:16.425Z,2.37
2022-12-19T15:48:20.876Z,2.36
2022-12-19T15:51:23.919Z,2.37
2022-12-19T15:57:54.523Z,2.42
2022-12-19T16:01:04.540Z,2.46
2022-12-19T16:04:14.330Z,2.49
2022-12-19T16:07:22.704Z,2.49
2022-12-19T16:10:32.310Z,2.49
2022-12-19T16:13:36.589Z,2.51
2022-12-19T16:16:43.623Z,2.49
2022-12-19T16:19:49.875Z,2.54
2022-12-19T16:22:53.110Z,2.61
2022-12-19T16:25:56.151Z,2.59
2022-12-19T16:29:01.805Z,2.62
2022-12-19T16:32:05.860Z,2.66
2022-12-19T16:35:17.505Z,2.68
2022-12-19T16:38:27.472Z,2.72
2022-12-19T16:41:30.459Z,2.69
2022-12-19T16:44:48.290Z,2.73
2022-12-19T16:47:54.692Z,2.73
2022-12-19T16:51:00.189Z,2.76
2022-12-19T16:54:03.227Z,2.81
2022-12-19T16:57:10.940Z,2.80
2022-12-19T17:00:17.257Z,2.81
2022-12-19T17:03:30.711Z,2.83
2022-12-19T17:06:35.107Z,2.83
2022-12-19T17:09:38.313Z,2.89
2022-12-19T17:12:44.019Z,2.90
2022-12-19T17:15:52.615Z,2.92
2022-12-19T17:19:00.234Z,2.90
2022-12-19T17:22:05.057Z,2.94
2022-12-19T17:25:21.597Z,2.97
2022-12-19T17:28:24.705Z,2.95
2022-12-19T17:31:31.194Z,3.00
2022-12-19T17:34:35.583Z,3.00
2022-12-19T17:37:40.035Z,3.01
2022-12-19T17:40:44.157Z,3.03
2022-12-19T17:43:47.550Z,3.05
2022-12-19T17:46:51.294Z,3.08
2022-12-19T17:49:54.321Z,3.06
2022-12-19T17:52:58.826Z,3.10
2022-12-19T17:56:01.929Z,3.14
2022-12-19T17:59:05.000Z,3.16
2022-12-19T18:02:21.609Z,3.19
2022-12-19T18:05:28.718Z,3.22
2022-12-19T18:08:34.275Z,3.26
2022-12-19T18:11:41.821Z,3.32
2022-12-19T18:14:45.395Z,3.31
2022-12-19T18:17:50.385Z,3.32
2022-12-19T18:20:53.451Z,3.33
2022-12-19T18:23:58.048Z,3.35
2022-12-19T18:27:01.100Z,3.37
2022-12-19T18:30:04.780Z,3.41
2022-12-19T18:33:09.094Z,3.45
2022-12-19T18:36:23.541Z,3.42
2022-12-19T18:39:31.954Z,3.44
2022-12-19T18:42:34.964Z,3.48
2022-12-19T18:45:40.900Z,3.47
2022-12-19T18:48:47.129Z,3.48
2022-12-19T18:51:51.559Z,3.50
2022-12-19T18:54:56.028Z,3.54
2022-12-19T18:57:59.563Z,3.55
2022-12-19T19:01:05.986Z,3.52
2022-12-19T19:04:12.214Z,3.56
2022-12-19T19:07:15.443Z,3.60
2022-12-19T19:10:24.959Z,3.61
2022-12-19T19:13:37.741Z,3.62
2022-12-19T19:16:40.913Z,3.64
2022-12-19T19:19:44.086Z,3.64
2022-12-19T19:22:51.367Z,3.67
2022-12-19T19:25:55.916Z,3.65
2022-12-19T19:28:59.229Z,3.65
2022-12-19T19:32:02.706Z,3.65
2022-12-19T19:35:08.309Z,3.69
2022-12-19T19:38:23.806Z,3.69
2022-12-19T19:41:30.016Z,3.69
2022-12-19T19:44:33.827Z,3.66
2022-12-19T19:47:37.593Z,3.66
2022-12-19T19:50:40.767Z,3.67
2022-12-19T19:53:43.926Z,3.64
2022-12-19T19:56:48.850Z,3.67
2022-12-19T19:59:51.915Z,3.65
2022-12-19T20:03:03.634Z,3.67
2022-12-19T20:06:12.382Z,3.65
2022-12-19T20:09:20.259Z,3.70
2022-12-19T20:12:28.487Z,3.67
2022-12-19T20:15:32.010Z,3.67
2022-12-19T20:18:40.087Z,3.66
2022-12-19T20:21:43.873Z,3.68
2022-12-19T20:24:51.088Z,3.64
2022-12-19T20:28:07.043Z,3.65
2022-12-19T20:31:13.654Z,3.60
2022-12-19T20:34:17.323Z,3.60
2022-12-19T20:37:20.327Z,3.61
2022-12-19T20:40:24.227Z,3.60
2022-12-19T20:43:28.864Z,3.55
2022-12-19T20:46:32.115Z,3.50
2022-12-19T20:49:36.614Z,3.41
2022-12-19T20:52:48.979Z,3.41
2022-12-19T20:55:58.249Z,3.42
2022-12-19T20:59:05.326Z,3.36
2022-12-19T21:02:13.626Z,3.39
2022-12-19T21:05:21.587Z,3.34
2022-12-19T21:08:27.831Z,3.26
2022-12-19T21:11:40.795Z,3.26
2022-12-19T21:15:04.118Z,3.26
2022-12-19T21:18:12.668Z,3.18
2022-12-19T21:21:18.512Z,3.11
2022-12-19T21:24:21.616Z,3.13
2022-12-19T21:27:24.699Z,3.11
2022-12-19T21:30:29.138Z,3.05
2022-12-19T21:33:32.688Z,3.10
2022-12-19T21:36:36.815Z,3.06
2022-12-19T21:39:40.785Z,3.02
2022-12-19T21:42:44.211Z,2.89
2022-12-19T21:45:48.988Z,2.89
2022-12-19T21:49:12.451Z,3.02
2022-12-19T21:52:20.600Z,3.03
2022-12-19T21:55:26.288Z,3.00
2022-12-19T21:58:29.572Z,3.03
2022-12-19T22:01:35.705Z,3.10
2022-12-19T22:04:38.949Z,3.10
2022-12-19T22:07:42.041Z,3.12
2022-12-19T22:10:45.536Z,3.12
2022-12-19T22:13:49.976Z,3.20
2022-12-19T22:16:54.472Z,3.23
2022-12-19T22:19:57.560Z,3.27
2022-12-19T22:23:00.771Z,3.30
2022-12-19T22:26:06.992Z,3.30
2022-12-19T22:29:12.713Z,3.29
2022-12-19T22:32:17.724Z,3.32
2022-12-19T22:35:21.082Z,3.33
2022-12-19T22:38:24.148Z,3.36
2022-12-19T22:41:29.032Z,3.37
2022-12-19T22:44:32.026Z,3.37
2022-12-19T22:47:36.830Z,3.38
2022-12-19T22:50:47.087Z,3.36
2022-12-19T22:53:50.295Z,3.31
2022-12-19T22:56:53.331Z,3.36
2022-12-19T22:59:56.395Z,3.35
2022-12-19T23:03:01.062Z,3.35
2022-12-19T23:06:04.399Z,3.30
2022-12-19T23:09:09.758Z,3.31
2022-12-19T23:12:13.511Z,3.33
2022-12-19T23:15:17.012Z,3.36
2022-12-19T23:18:21.825Z,3.34
2022-12-19T23:21:27.237Z,3.31
2022-12-19T23:24:30.605Z,3.34
2022-12-19T23:27:33.649Z,3.33
2022-12-19T23:30:37.755Z,3.31
2022-12-19T23:33:42.502Z,3.33
2022-12-19T23:37:10.304Z,3.34
2022-12-19T23:40:11.699Z,3.35
2022-12-19T23:43:16.332Z,3.35
2022-12-19T23:46:21.902Z,3.37
2022-12-19T23:49:26.840Z,3.38
2022-12-19T23:52:30.505Z,3.41
2022-12-19T23:55:34.915Z,3.41
2022-12-19T23:58:38.106Z,3.43
